Time;durP1;ratioP1;P1;durP2;ratioP2;P2;SDS_P1;SDS_P2;PMS_P1;PMS_P2;Temp;Humidity;BMP_temperature;BMP_pressure;BME280_temperature;BME280_humidity;BME280_pressure;Samples;Min_cycle;Max_cycle;Signal;HPM_P1;HPM_P2
2023/02/15 00:01:08;;;;;;;23.17;22.07;;;20.90;51.00;;;;;;5072121;28;20512;-61
2023/02/15 00:03:37;;;;;;;23.30;22.07;;;20.90;51.10;;;;;;5072196;28;20478;-61
2023/02/15 00:06:04;;;;;;;21.60;20.70;;;20.90;51.10;;;;;;5072146;28;20439;-61
2023/02/15 00:08:32;;;;;;;21.83;20.93;;;20.80;51.00;;;;;;5071747;28;20538;-61
2023/02/15 00:11:09;;;;;;;22.63;21.60;;;20.80;51.10;;;;;;5071886;28;20443;-60
2023/02/15 00:13:38;;;;;;;22.00;21.20;;;20.80;51.10;;;;;;5071961;28;20470;-60
2023/02/15 00:16:07;;;;;;;22.07;21.17;;;20.80;51.20;;;;;;5071952;28;20490;-61
2023/02/15 00:18:34;;;;;;;22.23;21.23;;;20.80;51.20;;;;;;5071676;28;20469;-61
2023/02/15 00:21:06;;;;;;;22.37;21.47;;;20.70;51.20;;;;;;5071722;28;20455;-60
2023/02/15 00:23:33;;;;;;;21.87;20.83;;;20.70;51.20;;;;;;5071996;28;20999;-61
2023/02/15 00:26:07;;;;;;;21.67;20.77;;;20.70;51.20;;;;;;5071873;28;20443;-61
2023/02/15 00:28:35;;;;;;;21.73;20.83;;;20.70;51.20;;;;;;5071199;28;20460;-58
2023/02/15 00:31:07;;;;;;;21.90;21.00;;;20.70;51.30;;;;;;5071729;28;20445;-60
2023/02/15 00:33:35;;;;;;;21.90;20.83;;;20.60;51.20;;;;;;5071756;28;20870;-59
2023/02/15 00:36:05;;;;;;;22.20;21.20;;;20.70;51.30;;;;;;5071654;28;20447;-59
2023/02/15 00:38:33;;;;;;;21.87;20.97;;;20.60;51.30;;;;;;5071491;28;20490;-61
2023/02/15 00:41:01;;;;;;;22.00;21.07;;;20.60;51.30;;;;;;5071468;28;20459;-60
2023/02/15 00:43:29;;;;;;;22.20;21.30;;;20.60;51.30;;;;;;5071272;28;20532;-59
2023/02/15 00:45:57;;;;;;;21.37;20.43;;;20.60;51.30;;;;;;5071716;28;20446;-60
2023/02/15 00:48:24;;;;;;;22.60;21.63;;;20.60;51.30;;;;;;5071236;28;20475;-60
2023/02/15 00:50:53;;;;;;;21.97;21.10;;;20.60;51.40;;;;;;5070204;28;20447;-61
2023/02/15 00:53:21;;;;;;;22.13;21.20;;;20.60;51.40;;;;;;5071517;28;20501;-61
2023/02/15 00:55:48;;;;;;;22.10;21.10;;;20.60;51.40;;;;;;5071476;28;20447;-61
2023/02/15 00:58:16;;;;;;;21.93;20.93;;;20.60;51.40;;;;;;5071307;28;20866;-60
2023/02/15 01:00:45;;;;;;;21.33;20.43;;;20.60;51.40;;;;;;5071228;28;20448;-61
2023/02/15 01:03:13;;;;;;;22.20;21.10;;;20.50;51.40;;;;;;5071347;28;20479;-61
2023/02/15 01:05:41;;;;;;;22.07;21.17;;;20.50;51.40;;;;;;5071396;28;20455;-60
2023/02/15 01:08:08;;;;;;;22.37;21.47;;;20.50;51.40;;;;;;5071096;28;20498;-60
2023/02/15 01:10:37;;;;;;;21.97;21.00;;;20.50;51.40;;;;;;5071099;28;20497;-61
2023/02/15 01:13:05;;;;;;;22.93;21.93;;;20.50;51.50;;;;;;5071299;28;20940;-61
2023/02/15 01:15:32;;;;;;;21.30;20.40;;;20.50;51.50;;;;;;5071370;28;20542;-60
2023/02/15 01:17:59;;;;;;;22.67;21.70;;;20.40;51.40;;;;;;5071030;28;20495;-61
2023/02/15 01:20:28;;;;;;;23.10;22.13;;;20.50;51.50;;;;;;5071069;28;20448;-59
2023/02/15 01:22:56;;;;;;;21.57;20.63;;;20.50;51.50;;;;;;5070994;28;20620;-60
2023/02/15 01:25:24;;;;;;;22.53;21.53;;;20.40;51.50;;;;;;5071244;28;20482;-60
2023/02/15 01:27:53;;;;;;;22.73;21.73;;;20.50;51.60;;;;;;5070863;28;20471;-60
2023/02/15 01:30:20;;;;;;;21.80;20.90;;;20.40;51.60;;;;;;5071019;28;20454;-60
2023/02/15 01:32:47;;;;;;;21.77;20.77;;;20.40;51.60;;;;;;5071136;28;20447;-61
2023/02/15 01:35:14;;;;;;;20.60;19.70;;;20.40;51.60;;;;;;5071156;28;20442;-59
2023/02/15 01:37:41;;;;;;;20.70;19.90;;;20.40;51.60;;;;;;5070909;28;20887;-61
2023/02/15 01:40:12;;;;;;;23.10;22.10;;;20.40;51.70;;;;;;5070847;28;20509;-59
2023/02/15 01:42:39;;;;;;;22.83;21.73;;;20.40;51.70;;;;;;5071073;28;20528;-62
2023/02/15 01:45:20;;;;;;;22.93;21.70;;;20.40;51.70;;;;;;5070798;28;20471;-61
2023/02/15 01:47:53;;;;;;;21.50;20.60;;;20.40;51.70;;;;;;5071024;28;20459;-61
2023/02/15 01:50:24;;;;;;;22.43;21.53;;;20.40;51.80;;;;;;5070914;28;20439;-59
2023/02/15 01:52:56;;;;;;;22.30;21.20;;;20.40;51.80;;;;;;5071091;28;20837;-61
2023/02/15 01:55:26;;;;;;;21.97;21.07;;;20.30;51.60;;;;;;5070712;28;20439;-61
2023/02/15 01:57:53;;;;;;;21.87;20.87;;;20.30;51.60;;;;;;5070895;28;20550;-61
2023/02/15 02:00:23;;;;;;;21.93;20.93;;;20.30;51.60;;;;;;5070756;28;20439;-61
2023/02/15 02:02:54;;;;;;;21.87;20.97;;;20.30;51.70;;;;;;5072606;28;20551;-61
2023/02/15 02:05:21;;;;;;;22.07;20.97;;;20.30;51.70;;;;;;5074042;28;20487;-61
2023/02/15 02:07:52;;;;;;;21.73;20.87;;;20.30;51.70;;;;;;5074287;28;20532;-61
2023/02/15 02:10:23;;;;;;;20.27;19.50;;;20.30;51.70;;;;;;5074273;28;20528;-59
2023/02/15 02:12:53;;;;;;;20.70;19.90;;;20.30;51.60;;;;;;5074243;28;20526;-63
2023/02/15 02:15:26;;;;;;;21.10;20.20;;;20.30;51.70;;;;;;5074060;28;20493;-61
2023/02/15 02:18:09;;;;;;;21.60;20.80;;;20.30;51.70;;;;;;5074076;28;20469;-61
2023/02/15 02:21:05;;;;;;;22.77;21.77;;;20.30;51.70;;;;;;5073959;28;21007;-60
2023/02/15 02:23:41;;;;;;;20.87;20.07;;;20.30;51.70;;;;;;5073646;28;20552;-60
2023/02/15 02:26:47;;;;;;;21.33;20.43;;;20.30;51.70;;;;;;5073331;28;20523;-61
2023/02/15 02:29:42;;;;;;;21.13;20.17;;;20.20;51.70;;;;;;5073375;28;20516;-61
2023/02/15 02:32:35;;;;;;;23.77;22.40;;;20.20;51.70;;;;;;5073883;28;20798;-61
2023/02/15 02:35:11;;;;;;;21.00;20.20;;;20.20;51.60;;;;;;5074014;28;20500;-60
2023/02/15 02:37:47;;;;;;;22.23;20.70;;;20.20;51.70;;;;;;5053715;28;20480;-61
2023/02/15 02:40:21;;;;;;;22.67;21.67;;;20.20;51.70;;;;;;5053701;28;20543;-61
2023/02/15 02:42:55;;;;;;;21.83;20.93;;;20.20;51.70;;;;;;5065785;28;20512;-61
2023/02/15 02:45:27;;;;;;;20.40;19.60;;;20.20;51.70;;;;;;5073467;28;20451;-61
2023/02/15 02:48:00;;;;;;;21.83;20.87;;;20.20;51.70;;;;;;5073776;28;20460;-63
2023/02/15 02:50:30;;;;;;;21.30;20.40;;;20.20;51.70;;;;;;5073477;28;20443;-61
2023/02/15 02:52:59;;;;;;;22.07;21.17;;;20.20;51.70;;;;;;5073286;28;20439;-61
2023/02/15 02:55:30;;;;;;;21.00;20.20;;;20.20;51.70;;;;;;5073761;28;20746;-61
2023/02/15 02:58:04;;;;;;;21.57;20.60;;;20.20;51.70;;;;;;5073492;28;20520;-61
2023/02/15 03:00:35;;;;;;;21.47;20.47;;;20.20;51.70;;;;;;5073366;28;20528;-61
2023/02/15 03:03:07;;;;;;;20.10;19.30;;;20.10;51.60;;;;;;5072992;28;20482;-61
2023/02/15 03:05:40;;;;;;;21.93;21.07;;;20.10;51.60;;;;;;5073415;28;20447;-61
2023/02/15 03:08:09;;;;;;;21.70;20.70;;;20.10;51.60;;;;;;5073235;28;20489;-64
2023/02/15 03:10:38;;;;;;;21.43;20.47;;;20.20;51.70;;;;;;5072897;28;20542;-60
2023/02/15 03:13:05;;;;;;;21.77;20.83;;;20.10;51.60;;;;;;5072652;28;20444;-60
2023/02/15 03:18:18;;;;;;;21.30;20.27;;;20.10;51.60;;;;;;5071980;28;20814;-62
2023/02/15 03:20:48;;;;;;;22.03;21.13;;;20.10;51.60;;;;;;5072761;28;20436;-61
2023/02/15 03:23:19;;;;;;;21.37;20.53;;;20.10;51.60;;;;;;5072807;28;20474;-61
2023/02/15 03:25:53;;;;;;;22.00;21.00;;;20.10;51.60;;;;;;5073312;28;20486;-61
2023/02/15 03:28:24;;;;;;;22.77;21.83;;;20.10;51.70;;;;;;5073068;28;20483;-61
2023/02/15 03:30:56;;;;;;;21.00;20.00;;;20.10;51.60;;;;;;5072694;28;21050;-62
2023/02/15 03:33:26;;;;;;;22.27;21.20;;;20.10;51.60;;;;;;5072960;28;20436;-61
2023/02/15 03:36:02;;;;;;;22.57;21.57;;;20.10;51.60;;;;;;5073092;28;20449;-60
2023/02/15 03:38:35;;;;;;;21.40;20.43;;;20.10;51.60;;;;;;5073108;28;20467;-61
2023/02/15 03:41:12;;;;;;;22.00;21.07;;;20.00;51.60;;;;;;5073089;28;20457;-62
2023/02/15 03:43:46;;;;;;;20.67;19.87;;;20.10;51.70;;;;;;5074127;28;20576;-61
2023/02/15 03:46:18;;;;;;;21.73;20.73;;;20.10;51.70;;;;;;5075909;28;20451;-60
2023/02/15 03:48:50;;;;;;;20.30;19.50;;;20.00;51.70;;;;;;5075151;28;20991;-61
2023/02/15 03:51:34;;;;;;;21.70;20.70;;;20.10;51.70;;;;;;5074334;28;20444;-64
2023/02/15 03:54:03;;;;;;;21.20;20.30;;;20.10;51.70;;;;;;5075842;28;20529;-64
2023/02/15 03:56:30;;;;;;;21.80;20.90;;;20.10;51.80;;;;;;5076855;28;20443;-62
2023/02/15 04:01:57;;;;;;;21.87;20.87;;;20.00;51.70;;;;;;5072066;28;20442;-62
2023/02/15 04:04:32;;;;;;;20.67;19.87;;;20.10;51.70;;;;;;5072142;28;20482;-63
2023/02/15 04:07:00;;;;;;;21.73;20.83;;;20.00;51.70;;;;;;5072115;28;20474;-63
2023/02/15 04:12:11;;;;;;;21.50;20.57;;;20.00;51.70;;;;;;5071912;28;20485;-61
2023/02/15 04:17:22;;;;;;;22.53;21.63;;;20.00;51.70;;;;;;5071983;28;20438;-61
2023/02/15 04:25:19;;;;;;;22.17;21.13;;;20.00;51.60;;;;;;5051788;28;20844;-61
2023/02/15 04:27:49;;;;;;;20.00;19.20;;;20.00;51.70;;;;;;5051644;28;20567;-59
2023/02/15 04:30:18;;;;;;;21.40;20.50;;;20.00;52.20;;;;;;5053079;28;20817;-61
2023/02/15 04:32:45;;;;;;;21.90;21.00;;;20.00;51.70;;;;;;5071844;28;20502;-60
2023/02/15 04:35:12;;;;;;;21.03;20.23;;;20.00;51.70;;;;;;5071702;28;20910;-61
2023/02/15 04:37:41;;;;;;;21.07;20.17;;;20.00;51.70;;;;;;5071745;28;20474;-62
2023/02/15 04:40:09;;;;;;;21.10;20.10;;;20.00;51.80;;;;;;5071265;28;20450;-61
2023/02/15 04:42:36;;;;;;;20.30;19.50;;;20.00;51.80;;;;;;5051599;28;20798;-60
2023/02/15 04:45:04;;;;;;;21.00;20.10;;;20.00;51.90;;;;;;5051573;28;20440;-58
2023/02/15 04:47:30;;;;;;;21.83;20.80;;;20.00;51.90;;;;;;5051559;28;20543;-60
2023/02/15 04:49:57;;;;;;;21.03;20.13;;;20.00;52.00;;;;;;5068574;28;20443;-61
2023/02/15 04:52:24;;;;;;;21.43;20.63;;;20.00;52.00;;;;;;5071740;28;21041;-59
2023/02/15 04:54:53;;;;;;;20.63;19.93;;;20.00;52.00;;;;;;5071494;28;20500;-61
2023/02/15 04:57:19;;;;;;;20.70;19.70;;;20.00;52.00;;;;;;5071491;28;20467;-60
2023/02/15 04:59:46;;;;;;;22.27;21.27;;;20.00;52.10;;;;;;5071090;28;21027;-61
2023/02/15 05:02:13;;;;;;;23.60;22.60;;;20.00;52.20;;;;;;5071190;28;20550;-60
2023/02/15 05:04:40;;;;;;;21.77;20.87;;;20.00;52.30;;;;;;5071478;28;20578;-58
2023/02/15 05:07:06;;;;;;;22.20;21.23;;;20.00;52.90;;;;;;5071369;28;20459;-59
2023/02/15 05:09:33;;;;;;;23.47;22.47;;;20.00;52.40;;;;;;5071082;28;20790;-60
2023/02/15 05:12:01;;;;;;;21.87;20.93;;;20.00;52.30;;;;;;5071410;28;20535;-61
2023/02/15 05:14:28;;;;;;;21.07;20.17;;;20.00;52.40;;;;;;5071357;28;20443;-60
2023/02/15 05:16:55;;;;;;;21.20;20.30;;;20.00;52.30;;;;;;5071258;28;20459;-60
2023/02/15 05:19:24;;;;;;;21.07;20.30;;;20.00;52.40;;;;;;5070866;28;20550;-56
2023/02/15 05:21:51;;;;;;;22.53;21.63;;;19.90;52.20;;;;;;5071226;28;20451;-60
2023/02/15 05:29:47;;;;;;;22.90;21.80;;;19.90;52.20;;;;;;5083034;28;20534;-64
2023/02/15 05:32:15;;;;;;;21.00;20.17;;;19.90;52.20;;;;;;5071261;28;20443;-64
2023/02/15 05:34:41;;;;;;;21.97;20.70;;;20.00;52.20;;;;;;5071195;28;20966;-64
2023/02/15 05:37:08;;;;;;;23.90;22.40;;;20.00;52.40;;;;;;5071910;28;20565;-64
2023/02/15 05:39:35;;;;;;;24.27;22.73;;;20.00;53.10;;;;;;5088270;28;21033;-64
2023/02/15 05:42:04;;;;;;;25.10;23.23;;;20.00;54.30;;;;;;5093909;28;20448;-62
2023/02/15 05:44:31;;;;;;;24.23;22.43;;;20.10;55.00;;;;;;5093289;28;20476;-63
2023/02/15 05:46:57;;;;;;;22.50;21.40;;;20.10;55.50;;;;;;5094506;28;20536;-63
2023/02/15 05:49:24;;;;;;;24.50;22.43;;;20.20;56.00;;;;;;5095035;28;20537;-63
2023/02/15 05:51:51;;;;;;;22.87;21.47;;;20.20;56.30;;;;;;5094969;28;20573;-63
2023/02/15 05:54:18;;;;;;;22.67;21.50;;;20.20;56.20;;;;;;5095207;28;20437;-63
2023/02/15 05:56:44;;;;;;;24.70;23.60;;;20.20;55.80;;;;;;5094810;28;20855;-63
2023/02/15 05:59:13;;;;;;;22.57;21.30;;;20.30;55.60;;;;;;5094750;28;20533;-63
2023/02/15 06:01:40;;;;;;;22.37;21.27;;;20.30;55.20;;;;;;5094867;28;20445;-63
2023/02/15 06:04:07;;;;;;;21.80;20.40;;;20.30;55.00;;;;;;5094621;28;21097;-62
2023/02/15 06:06:34;;;;;;;24.57;22.90;;;20.30;54.70;;;;;;5094965;28;20541;-61
2023/02/15 06:09:01;;;;;;;21.03;19.83;;;20.40;54.50;;;;;;5094508;28;20469;-62
2023/02/15 06:11:27;;;;;;;22.50;21.30;;;20.40;54.30;;;;;;5094703;28;20538;-63
2023/02/15 06:13:54;;;;;;;23.23;21.67;;;20.40;54.10;;;;;;5094523;28;20445;-63
2023/02/15 06:16:23;;;;;;;23.07;21.77;;;20.40;53.90;;;;;;5094911;28;20541;-63
2023/02/15 06:18:50;;;;;;;22.10;21.10;;;20.40;53.70;;;;;;5095487;28;20549;-63
2023/02/15 06:21:17;;;;;;;22.93;21.57;;;20.50;53.60;;;;;;5095568;28;20442;-64
2023/02/15 06:23:44;;;;;;;22.37;20.80;;;20.50;53.50;;;;;;5095450;28;20492;-63
2023/02/15 06:26:11;;;;;;;23.70;22.13;;;20.50;53.30;;;;;;5095480;28;20852;-63
2023/02/15 06:28:38;;;;;;;21.83;20.83;;;20.50;53.10;;;;;;5095355;28;20475;-63
2023/02/15 06:31:05;;;;;;;21.80;20.83;;;20.50;53.00;;;;;;5095683;28;20443;-63
2023/02/15 06:33:33;;;;;;;21.87;20.67;;;20.50;52.80;;;;;;5094215;28;20442;-62
2023/02/15 06:36:00;;;;;;;22.77;21.70;;;20.50;52.70;;;;;;5094241;28;20446;-64
2023/02/15 06:38:27;;;;;;;23.67;22.33;;;20.50;52.60;;;;;;5094195;28;20982;-62
2023/02/15 06:40:54;;;;;;;23.10;21.70;;;20.50;52.40;;;;;;5093917;28;20529;-63
2023/02/15 06:43:21;;;;;;;23.37;22.20;;;20.50;52.30;;;;;;5094040;28;20986;-61
2023/02/15 06:45:47;;;;;;;24.03;23.03;;;20.50;52.10;;;;;;5093974;28;21023;-63
2023/02/15 06:48:14;;;;;;;21.60;20.80;;;20.60;52.10;;;;;;5093668;28;20469;-63
2023/02/15 06:50:43;;;;;;;23.33;21.90;;;20.60;52.00;;;;;;5093860;28;20553;-63
2023/02/15 06:53:09;;;;;;;21.67;20.70;;;20.50;51.90;;;;;;5093771;28;20521;-63
2023/02/15 06:55:36;;;;;;;23.70;22.60;;;20.50;51.80;;;;;;5093828;28;20438;-63
2023/02/15 06:58:03;;;;;;;24.03;22.73;;;20.50;51.70;;;;;;5093776;28;20541;-63
2023/02/15 07:00:30;;;;;;;21.70;20.50;;;20.50;51.70;;;;;;5093509;28;20880;-62
2023/02/15 07:02:57;;;;;;;21.80;20.70;;;20.50;51.60;;;;;;5093717;28;20537;-64
2023/02/15 07:05:24;;;;;;;21.60;20.70;;;20.50;51.60;;;;;;5093525;28;20500;-63
2023/02/15 07:07:52;;;;;;;22.07;21.17;;;20.50;51.50;;;;;;5093556;28;20531;-63
2023/02/15 07:10:19;;;;;;;22.40;21.30;;;20.50;51.40;;;;;;5093326;28;20545;-63
2023/02/15 07:12:45;;;;;;;22.00;21.20;;;20.50;51.40;;;;;;5093375;28;20517;-63
2023/02/15 07:15:15;;;;;;;20.70;19.77;;;20.50;51.30;;;;;;5093294;28;20434;-62
2023/02/15 07:17:43;;;;;;;21.40;20.60;;;20.50;51.30;;;;;;5093275;28;20838;-63
2023/02/15 07:20:13;;;;;;;21.27;20.20;;;20.50;51.30;;;;;;5093045;28;20442;-64
2023/02/15 07:22:39;;;;;;;21.63;20.73;;;20.50;51.40;;;;;;5093327;28;20798;-64
2023/02/15 07:25:10;;;;;;;21.00;20.13;;;20.50;51.40;;;;;;5093213;28;20560;-63
2023/02/15 07:27:37;;;;;;;20.53;19.83;;;20.50;51.40;;;;;;5093027;28;20474;-63
2023/02/15 07:30:04;;;;;;;22.20;21.30;;;20.50;51.30;;;;;;5092817;28;20446;-63
2023/02/15 07:32:32;;;;;;;23.00;22.10;;;20.60;51.40;;;;;;5093109;28;20891;-63
2023/02/15 07:35:00;;;;;;;21.40;20.63;;;20.50;51.30;;;;;;5092942;28;20796;-63
2023/02/15 07:37:27;;;;;;;21.37;20.40;;;20.50;51.20;;;;;;5092870;28;20485;-63
2023/02/15 07:39:54;;;;;;;21.00;20.20;;;20.60;51.30;;;;;;5092735;28;20438;-62
2023/02/15 07:42:22;;;;;;;23.53;22.30;;;20.60;51.20;;;;;;5092894;28;20442;-62
2023/02/15 07:44:49;;;;;;;23.00;22.10;;;20.60;51.10;;;;;;5092843;28;20478;-63
2023/02/15 07:47:16;;;;;;;22.00;21.10;;;20.60;51.10;;;;;;5092639;28;20883;-62
2023/02/15 07:49:43;;;;;;;23.13;22.33;;;20.60;51.00;;;;;;5092486;28;20442;-63
2023/02/15 07:52:09;;;;;;;21.47;20.27;;;20.60;51.00;;;;;;5092678;28;20447;-62
2023/02/15 07:54:36;;;;;;;21.03;19.80;;;20.60;51.00;;;;;;5092694;28;20541;-62
2023/02/15 07:57:03;;;;;;;22.37;21.37;;;20.60;50.90;;;;;;5092667;28;20439;-62
2023/02/15 07:59:31;;;;;;;20.90;20.10;;;20.60;50.90;;;;;;5092120;28;20454;-63
2023/02/15 08:01:58;;;;;;;19.83;19.03;;;20.60;50.90;;;;;;5092432;28;20856;-61
2023/02/15 08:04:25;;;;;;;19.40;18.70;;;20.70;50.80;;;;;;5092427;28;20566;-63
2023/02/15 08:06:54;;;;;;;20.97;20.07;;;20.70;50.80;;;;;;5092393;28;20873;-62
2023/02/15 08:09:22;;;;;;;20.90;20.00;;;20.60;50.70;;;;;;5092222;28;20446;-63
2023/02/15 08:11:49;;;;;;;20.73;19.93;;;20.70;50.70;;;;;;5092322;28;20443;-62
2023/02/15 08:14:18;;;;;;;21.43;20.63;;;20.60;50.50;;;;;;5092351;28;20438;-63
2023/02/15 08:16:47;;;;;;;21.40;20.60;;;20.60;50.50;;;;;;5092116;28;20442;-63
2023/02/15 08:19:17;;;;;;;19.60;18.80;;;20.60;50.40;;;;;;5092046;28;20450;-64
2023/02/15 08:21:46;;;;;;;19.87;19.07;;;20.60;50.40;;;;;;5092061;28;20551;-63
2023/02/15 08:24:14;;;;;;;19.60;19.00;;;20.60;50.30;;;;;;5092088;28;20478;-64
2023/02/15 08:26:42;;;;;;;19.50;18.80;;;20.60;50.20;;;;;;5092259;28;20446;-64
2023/02/15 08:29:10;;;;;;;20.13;19.33;;;20.60;50.20;;;;;;5091791;28;20478;-62
2023/02/15 08:31:37;;;;;;;19.10;18.30;;;20.60;50.20;;;;;;5092083;28;20880;-63
2023/02/15 08:34:05;;;;;;;20.67;19.73;;;20.60;50.20;;;;;;5091968;28;20954;-63
2023/02/15 08:36:32;;;;;;;20.10;19.20;;;20.60;50.70;;;;;;5091944;28;20815;-64
2023/02/15 08:39:01;;;;;;;20.00;19.23;;;20.60;50.20;;;;;;5091786;28;20484;-64
2023/02/15 08:41:30;;;;;;;21.87;20.97;;;20.60;50.20;;;;;;5091800;28;21034;-63
2023/02/15 08:43:58;;;;;;;19.93;19.20;;;20.60;50.10;;;;;;5091772;28;20464;-63
2023/02/15 08:46:26;;;;;;;21.40;20.70;;;20.60;50.70;;;;;;5091810;28;20442;-63
2023/02/15 08:48:53;;;;;;;21.43;20.53;;;20.60;50.20;;;;;;5091585;28;20473;-64
2023/02/15 08:51:23;;;;;;;20.77;20.07;;;20.50;50.10;;;;;;5091698;28;20442;-63
2023/02/15 08:53:52;;;;;;;20.70;19.90;;;20.50;50.10;;;;;;5091771;28;20801;-63
2023/02/15 08:56:22;;;;;;;20.37;19.67;;;20.50;50.20;;;;;;5091693;28;20447;-63
2023/02/15 08:58:48;;;;;;;20.93;20.13;;;20.50;50.20;;;;;;5091370;28;20470;-63
2023/02/15 09:01:17;;;;;;;22.00;21.00;;;20.60;50.30;;;;;;5091600;28;20529;-64
2023/02/15 09:03:45;;;;;;;20.23;19.53;;;20.60;50.40;;;;;;5091612;28;20454;-63
2023/02/15 09:06:12;;;;;;;20.60;19.87;;;20.60;50.30;;;;;;5091610;28;20474;-62
2023/02/15 09:08:41;;;;;;;20.67;19.93;;;20.60;50.30;;;;;;5091672;28;20463;-64
2023/02/15 09:11:10;;;;;;;19.93;19.23;;;20.60;50.30;;;;;;5091491;28;20434;-64
2023/02/15 09:13:37;;;;;;;20.10;19.23;;;20.60;50.30;;;;;;5095118;28;20525;-63
2023/02/15 09:16:07;;;;;;;19.53;18.83;;;20.60;50.30;;;;;;5095706;28;20438;-63
2023/02/15 09:18:37;;;;;;;19.37;18.57;;;20.70;50.30;;;;;;5095524;28;20470;-63
2023/02/15 09:21:08;;;;;;;19.30;18.50;;;20.60;50.20;;;;;;5095457;28;20529;-62
2023/02/15 09:23:35;;;;;;;19.80;19.10;;;20.60;50.20;;;;;;5095607;28;20445;-63
2023/02/15 09:26:09;;;;;;;20.00;19.20;;;20.70;50.40;;;;;;5095530;28;20504;-63
2023/02/15 09:28:36;;;;;;;20.67;19.77;;;20.70;50.20;;;;;;5095279;28;20835;-63
2023/02/15 09:31:08;;;;;;;19.40;18.70;;;20.70;50.20;;;;;;5095171;28;20442;-63
2023/02/15 09:33:35;;;;;;;19.90;19.20;;;20.70;50.20;;;;;;5095368;28;20472;-64
2023/02/15 09:36:03;;;;;;;19.67;18.97;;;20.70;50.10;;;;;;5095376;28;20453;-63
2023/02/15 09:38:30;;;;;;;20.23;19.53;;;20.70;50.10;;;;;;5095236;28;20458;-63
2023/02/15 09:41:10;;;;;;;19.87;18.97;;;20.70;50.10;;;;;;5095195;28;20943;-63
2023/02/15 09:43:44;;;;;;;19.03;18.33;;;20.70;50.00;;;;;;5095342;28;20446;-63
2023/02/15 09:46:34;;;;;;;19.43;18.73;;;20.70;50.00;;;;;;5095109;28;20889;-62
2023/02/15 09:49:10;;;;;;;20.07;19.07;;;20.70;49.90;;;;;;5095007;28;20468;-63
2023/02/15 09:52:00;;;;;;;19.23;18.43;;;20.70;49.90;;;;;;5095010;28;20444;-63
2023/02/15 09:54:47;;;;;;;18.10;17.50;;;20.70;49.90;;;;;;5094957;28;20464;-63
2023/02/15 09:57:27;;;;;;;19.13;18.43;;;20.70;49.90;;;;;;5094873;28;20915;-63
2023/02/15 10:00:04;;;;;;;19.40;18.57;;;20.70;49.80;;;;;;5094869;28;20938;-64
2023/02/15 10:02:46;;;;;;;18.83;18.13;;;20.70;49.80;;;;;;5094838;28;20567;-61
2023/02/15 10:05:25;;;;;;;19.33;18.67;;;20.70;49.70;;;;;;5094727;28;20481;-63
2023/02/15 10:08:16;;;;;;;19.27;18.67;;;20.70;49.70;;;;;;5094667;28;20468;-63
2023/02/15 10:10:54;;;;;;;20.00;19.30;;;20.60;49.60;;;;;;5094493;28;20454;-64
2023/02/15 10:13:35;;;;;;;20.13;19.33;;;20.70;49.70;;;;;;5094645;28;20442;-64
2023/02/15 10:16:13;;;;;;;20.60;19.90;;;20.60;49.60;;;;;;5094688;28;20517;-63
2023/02/15 10:19:01;;;;;;;20.83;20.13;;;20.60;49.50;;;;;;5094574;28;20951;-61
2023/02/15 10:21:44;;;;;;;19.30;18.60;;;20.60;49.50;;;;;;5094476;28;20447;-63
2023/02/15 10:24:31;;;;;;;19.70;19.00;;;20.60;49.50;;;;;;5094019;28;20445;-63
2023/02/15 10:27:04;;;;;;;19.40;18.70;;;20.60;49.60;;;;;;5094119;28;20532;-63
2023/02/15 10:29:37;;;;;;;18.90;18.30;;;20.60;49.60;;;;;;5094125;28;20467;-63
2023/02/15 10:32:17;;;;;;;19.53;18.83;;;20.60;49.60;;;;;;5094355;28;20442;-64
2023/02/15 10:34:51;;;;;;;20.30;19.60;;;20.60;49.70;;;;;;5094213;28;20431;-63
2023/02/15 10:37:45;;;;;;;19.50;18.80;;;20.60;49.70;;;;;;5094122;28;20462;-63
2023/02/15 10:40:19;;;;;;;19.07;18.47;;;20.60;49.80;;;;;;5087738;28;20567;-62
2023/02/15 10:43:06;;;;;;;19.53;18.80;;;20.60;49.80;;;;;;5093954;28;20533;-63
2023/02/15 10:45:46;;;;;;;21.07;20.37;;;20.60;49.80;;;;;;5093974;28;20485;-63
2023/02/15 10:48:39;;;;;;;20.20;19.50;;;20.60;49.80;;;;;;5094013;28;20466;-64
2023/02/15 10:51:11;;;;;;;20.07;19.37;;;20.60;49.80;;;;;;5093699;28;20838;-64
2023/02/15 10:54:01;;;;;;;19.87;19.23;;;20.70;49.90;;;;;;5093981;28;20438;-63
2023/02/15 10:56:36;;;;;;;19.70;19.10;;;20.70;49.80;;;;;;5093761;28;20456;-62
2023/02/15 10:59:24;;;;;;;20.80;20.00;;;20.70;49.80;;;;;;5093641;28;20469;-63
2023/02/15 11:01:57;;;;;;;21.03;20.33;;;20.70;49.80;;;;;;5093570;28;20438;-64
2023/02/15 11:04:50;;;;;;;19.93;19.23;;;20.70;49.70;;;;;;5093687;28;20960;-63
2023/02/15 11:07:22;;;;;;;21.27;20.57;;;20.70;49.70;;;;;;5093640;28;20466;-64
2023/02/15 11:09:53;;;;;;;20.67;19.97;;;20.70;49.70;;;;;;5093347;28;20442;-62
2023/02/15 11:12:24;;;;;;;21.17;20.50;;;20.70;49.70;;;;;;5093666;28;20443;-63
2023/02/15 11:14:56;;;;;;;20.93;20.23;;;20.70;49.70;;;;;;5093527;28;20469;-63
2023/02/15 11:17:29;;;;;;;21.27;20.57;;;20.70;49.70;;;;;;5093385;28;20557;-64
2023/02/15 11:20:02;;;;;;;21.63;20.83;;;20.70;49.60;;;;;;5093167;28;20443;-64
2023/02/15 11:22:31;;;;;;;20.23;19.53;;;20.70;49.60;;;;;;5093294;28;20529;-64
2023/02/15 11:24:59;;;;;;;20.77;20.03;;;20.70;49.60;;;;;;5093271;28;20886;-63
2023/02/15 11:27:29;;;;;;;21.47;20.77;;;20.70;49.50;;;;;;5093541;28;20481;-63
2023/02/15 11:30:01;;;;;;;19.80;19.13;;;20.80;49.60;;;;;;5093000;28;20443;-63
2023/02/15 11:32:33;;;;;;;21.37;20.67;;;20.80;49.60;;;;;;5093113;28;20450;-63
2023/02/15 11:35:04;;;;;;;19.73;19.10;;;20.70;49.50;;;;;;5092374;28;20924;-62
2023/02/15 11:37:36;;;;;;;19.30;18.70;;;20.80;49.50;;;;;;5092975;28;20516;-63
2023/02/15 11:40:13;;;;;;;20.23;19.43;;;20.80;49.50;;;;;;5092885;28;20450;-64
2023/02/15 11:42:41;;;;;;;20.20;19.50;;;20.80;49.50;;;;;;5093036;28;20446;-64
2023/02/15 11:45:23;;;;;;;19.97;19.27;;;20.80;49.50;;;;;;5092819;28;20831;-63
2023/02/15 11:47:52;;;;;;;19.20;18.50;;;20.80;49.50;;;;;;5092722;28;20465;-63
2023/02/15 11:50:23;;;;;;;19.60;18.90;;;20.80;49.50;;;;;;5092636;28;20450;-62
2023/02/15 11:52:51;;;;;;;20.23;19.53;;;20.80;49.40;;;;;;5092725;28;20442;-63
2023/02/15 11:55:21;;;;;;;19.00;18.30;;;20.80;49.40;;;;;;5092799;28;20438;-63
2023/02/15 11:57:54;;;;;;;19.90;19.30;;;20.80;49.40;;;;;;5092719;28;20467;-63
2023/02/15 12:00:35;;;;;;;19.40;18.80;;;20.80;49.40;;;;;;5092499;28;20442;-62
2023/02/15 12:03:10;;;;;;;20.17;19.57;;;20.80;49.40;;;;;;5092589;28;20541;-63
2023/02/15 12:05:42;;;;;;;20.57;19.70;;;20.80;49.40;;;;;;5092447;28;20916;-63
2023/02/15 12:08:31;;;;;;;20.03;19.33;;;20.80;49.40;;;;;;5092495;28;20468;-63
2023/02/15 12:11:03;;;;;;;19.60;19.00;;;20.80;49.50;;;;;;5092214;28;20442;-63
2023/02/15 12:13:30;;;;;;;20.00;19.30;;;20.80;49.40;;;;;;5092429;28;20442;-63
2023/02/15 12:15:59;;;;;;;19.40;18.80;;;20.80;49.40;;;;;;5092302;28;20928;-63
2023/02/15 12:18:37;;;;;;;19.90;19.30;;;20.80;49.40;;;;;;5092220;28;20465;-63
2023/02/15 12:21:08;;;;;;;20.13;19.43;;;20.80;49.50;;;;;;5091960;28;20524;-63
2023/02/15 12:23:40;;;;;;;20.00;19.40;;;20.80;49.50;;;;;;5092212;28;20442;-64
2023/02/15 12:26:07;;;;;;;19.70;18.90;;;20.80;49.50;;;;;;5091996;28;20488;-63
2023/02/15 12:28:36;;;;;;;20.57;19.87;;;20.90;49.60;;;;;;5091972;28;20473;-64
2023/02/15 12:31:08;;;;;;;20.30;19.70;;;20.90;49.60;;;;;;5091866;28;20439;-64
2023/02/15 12:33:40;;;;;;;18.67;18.07;;;20.90;49.60;;;;;;5091963;28;20452;-63
2023/02/15 12:36:14;;;;;;;19.33;18.73;;;20.90;49.50;;;;;;5092174;28;20473;-63
2023/02/15 12:38:40;;;;;;;20.17;19.50;;;20.90;50.00;;;;;;5091864;28;20469;-64
2023/02/15 12:41:24;;;;;;;20.83;20.13;;;20.90;49.50;;;;;;5091684;28;20446;-63
2023/02/15 12:44:05;;;;;;;21.07;20.37;;;21.00;50.10;;;;;;5091878;28;20449;-62
2023/02/15 12:46:32;;;;;;;20.07;19.37;;;21.00;49.50;;;;;;5091710;28;20849;-63
2023/02/15 12:49:18;;;;;;;20.47;19.77;;;21.00;49.50;;;;;;5091732;28;20465;-64
2023/02/15 12:51:48;;;;;;;20.30;19.70;;;21.00;49.50;;;;;;5091734;28;20453;-63
2023/02/15 12:54:31;;;;;;;20.33;19.63;;;21.00;49.50;;;;;;5091728;28;20442;-63
2023/02/15 12:56:59;;;;;;;20.30;19.63;;;21.00;49.40;;;;;;5091756;28;20810;-63
2023/02/15 12:59:26;;;;;;;20.50;19.80;;;21.00;49.40;;;;;;5091501;28;20470;-64
2023/02/15 13:01:54;;;;;;;19.90;19.20;;;21.00;49.40;;;;;;5091542;28;20821;-64
2023/02/15 13:04:27;;;;;;;20.37;19.67;;;21.00;49.40;;;;;;5091769;28;20958;-63
2023/02/15 13:06:56;;;;;;;19.47;18.87;;;21.00;49.40;;;;;;5091524;28;20484;-64
2023/02/15 13:09:36;;;;;;;21.60;20.90;;;21.00;49.30;;;;;;5091484;28;20454;-64